createdAt,value
2019-05-14T00:00:13.027Z,1.30
2019-05-14T00:02:41.885Z,1.20
2019-05-14T00:05:12.166Z,1.20
2019-05-14T00:07:41.456Z,1.10
2019-05-14T00:10:11.871Z,1.10
2019-05-14T00:12:41.825Z,1.10
2019-05-14T00:15:11.821Z,1.00
2019-05-14T00:17:41.610Z,1.00
2019-05-14T00:20:13.264Z,1.00
2019-05-14T00:22:42.051Z,0.90
2019-05-14T00:25:11.746Z,0.90
2019-05-14T00:27:41.416Z,0.90
2019-05-14T00:30:11.464Z,0.90
2019-05-14T00:32:41.478Z,0.90
2019-05-14T00:35:11.078Z,0.80
2019-05-14T00:37:41.443Z,0.80
2019-05-14T00:40:11.772Z,0.70
2019-05-14T00:42:41.586Z,0.70
2019-05-14T00:45:11.644Z,0.70
2019-05-14T00:47:41.774Z,0.60
2019-05-14T00:50:12.590Z,0.60
2019-05-14T00:52:44.251Z,0.50
2019-05-14T00:55:11.998Z,0.50
2019-05-14T00:57:42.618Z,0.50
2019-05-14T01:00:11.731Z,0.50
2019-05-14T01:02:41.543Z,0.40
2019-05-14T01:05:12.421Z,0.40
2019-05-14T01:07:42.257Z,0.30
2019-05-14T01:10:11.671Z,0.30
2019-05-14T01:12:41.341Z,0.30
2019-05-14T01:15:14.041Z,0.30
2019-05-14T01:17:42.173Z,0.20
2019-05-14T01:20:12.308Z,0.20
2019-05-14T01:22:42.246Z,0.10
2019-05-14T01:25:12.163Z,0.10
2019-05-14T01:27:41.332Z,0.10
2019-05-14T01:30:12.534Z,0.10
2019-05-14T01:32:42.004Z,0.10
2019-05-14T01:35:12.083Z,0.10
2019-05-14T01:37:41.605Z,0.00
2019-05-14T01:40:11.380Z,0.00
2019-05-14T01:42:41.584Z,0.00
2019-05-14T01:45:24.376Z,0.00
2019-05-14T01:47:41.661Z,-0.10
2019-05-14T01:50:11.417Z,-0.10
2019-05-14T01:52:41.583Z,-0.10
2019-05-14T01:55:11.414Z,-0.10
2019-05-14T01:57:42.499Z,-0.10
2019-05-14T02:00:11.642Z,-0.20
2019-05-14T02:02:41.814Z,-0.20
2019-05-14T02:05:12.530Z,-0.20
2019-05-14T02:07:42.204Z,-0.20
2019-05-14T02:10:11.813Z,-0.30
2019-05-14T02:12:42.406Z,-0.30
2019-05-14T02:15:12.163Z,-0.30
2019-05-14T02:17:41.563Z,-0.30
2019-05-14T02:20:12.614Z,-0.40
2019-05-14T02:22:41.828Z,-0.40
2019-05-14T02:25:11.769Z,-0.40
2019-05-14T02:27:41.506Z,-0.40
2019-05-14T02:30:11.409Z,-0.40
2019-05-14T02:32:40.827Z,-0.50
2019-05-14T02:35:10.581Z,-0.50
2019-05-14T02:37:40.516Z,-0.50
2019-05-14T02:40:10.270Z,-0.50
2019-05-14T02:42:40.120Z,-0.50
2019-05-14T02:45:09.694Z,-0.50
2019-05-14T02:47:39.834Z,-0.50
2019-05-14T02:50:10.132Z,-0.60
2019-05-14T02:52:40.254Z,-0.60
2019-05-14T02:55:10.692Z,-0.60
2019-05-14T02:57:40.315Z,-0.60
2019-05-14T03:00:10.232Z,-0.60
2019-05-14T03:02:40.397Z,-0.70
2019-05-14T03:05:10.176Z,-0.70
2019-05-14T03:07:39.685Z,-0.70
2019-05-14T03:10:10.074Z,-0.70
2019-05-14T03:12:40.008Z,-0.70
2019-05-14T03:15:10.057Z,-0.80
2019-05-14T03:17:40.460Z,-0.80
2019-05-14T03:20:10.060Z,-0.80
2019-05-14T03:22:53.710Z,-0.80
2019-05-14T03:25:10.375Z,-0.80
2019-05-14T03:27:40.712Z,-0.90
2019-05-14T03:30:12.243Z,-0.90
2019-05-14T03:32:42.796Z,-0.90
2019-05-14T03:35:13.533Z,-0.90
2019-05-14T03:37:42.271Z,-0.90
2019-05-14T03:40:11.202Z,-0.90
2019-05-14T03:42:40.174Z,-0.90
2019-05-14T03:45:09.249Z,-0.90
2019-05-14T03:47:39.432Z,-0.90
2019-05-14T03:50:10.142Z,-0.90
2019-05-14T03:52:40.127Z,-1.00
2019-05-14T03:55:09.819Z,-1.00
2019-05-14T03:57:39.854Z,-1.00
2019-05-14T04:00:10.459Z,-1.00
2019-05-14T04:02:39.913Z,-1.00
2019-05-14T04:05:09.702Z,-1.00
2019-05-14T04:07:41.344Z,-1.00
2019-05-14T04:10:10.654Z,-1.00
2019-05-14T04:12:43.382Z,-1.00
2019-05-14T04:15:12.387Z,-1.00
2019-05-14T04:17:42.953Z,-1.00
2019-05-14T04:20:12.641Z,-0.90
2019-05-14T04:22:41.595Z,-0.90
2019-05-14T04:25:11.259Z,-0.80
2019-05-14T04:27:41.717Z,-0.80
2019-05-14T04:30:12.727Z,-0.70
2019-05-14T04:32:42.885Z,-0.70
2019-05-14T04:35:12.292Z,-0.60
2019-05-14T04:37:41.345Z,-0.50
2019-05-14T04:40:10.591Z,-0.50
2019-05-14T04:42:40.306Z,-0.40
2019-05-14T04:45:11.229Z,-0.30
2019-05-14T04:47:42.033Z,-0.20
2019-05-14T04:50:11.202Z,-0.10
2019-05-14T04:52:40.595Z,-0.10
2019-05-14T04:55:10.149Z,0.10
2019-05-14T04:57:39.496Z,0.20
2019-05-14T05:00:12.201Z,0.30
2019-05-14T05:02:40.082Z,0.40
2019-05-14T05:05:09.657Z,0.60
2019-05-14T05:07:40.408Z,1.20
2019-05-14T05:10:10.278Z,2.50
2019-05-14T05:12:39.333Z,4.00
2019-05-14T05:15:09.296Z,5.60
2019-05-14T05:17:47.090Z,7.20
2019-05-14T05:20:10.151Z,8.70
2019-05-14T05:22:39.751Z,10.10
2019-05-14T05:25:09.231Z,11.10
2019-05-14T05:27:38.340Z,11.80
2019-05-14T05:30:08.461Z,12.40
2019-05-14T05:32:38.915Z,13.30
2019-05-14T05:35:09.567Z,14.30
2019-05-14T05:37:38.674Z,14.80
2019-05-14T05:40:09.111Z,15.60
2019-05-14T05:42:38.754Z,16.30
2019-05-14T05:45:08.167Z,17.00
2019-05-14T05:47:39.114Z,17.80
2019-05-14T05:50:08.691Z,18.10
2019-05-14T05:52:38.739Z,18.40
2019-05-14T05:55:09.130Z,18.70
2019-05-14T05:57:39.292Z,19.10
2019-05-14T06:00:09.436Z,19.30
2019-05-14T06:02:39.812Z,19.20
2019-05-14T06:05:09.286Z,19.00
2019-05-14T06:07:39.475Z,19.10
2019-05-14T06:10:09.100Z,19.60
2019-05-14T06:12:38.858Z,19.90
2019-05-14T06:15:08.887Z,20.80
2019-05-14T06:17:39.090Z,21.50
2019-05-14T06:20:09.066Z,22.10
2019-05-14T06:22:38.530Z,22.20
2019-05-14T06:25:11.277Z,22.80
2019-05-14T06:27:38.237Z,23.30
2019-05-14T06:30:09.119Z,24.10
2019-05-14T06:32:38.811Z,24.70
2019-05-14T06:35:08.846Z,25.70
2019-05-14T06:37:38.549Z,26.40
2019-05-14T06:40:09.030Z,27.10
2019-05-14T06:42:39.365Z,27.80
2019-05-14T06:45:09.233Z,28.50
2019-05-14T06:47:38.395Z,27.90
2019-05-14T06:50:08.602Z,27.70
2019-05-14T06:52:38.636Z,28.30
2019-05-14T06:55:08.976Z,28.40
2019-05-14T06:57:39.429Z,27.50
2019-05-14T07:00:09.372Z,27.90
2019-05-14T07:02:43.508Z,28.20
2019-05-14T07:05:09.196Z,28.80
2019-05-14T07:07:40.409Z,29.10
2019-05-14T07:10:09.229Z,29.40
2019-05-14T07:12:38.677Z,29.00
2019-05-14T07:15:09.302Z,29.60
2019-05-14T07:17:38.678Z,30.20
2019-05-14T07:20:09.225Z,31.40
2019-05-14T07:22:38.957Z,32.50
2019-05-14T07:25:09.907Z,32.50
2019-05-14T07:27:39.424Z,33.50
2019-05-14T07:30:09.297Z,34.60
2019-05-14T07:32:39.514Z,34.80
2019-05-14T07:35:09.678Z,35.40
2019-05-14T07:37:39.611Z,36.20
2019-05-14T07:40:09.320Z,36.50
2019-05-14T07:42:38.548Z,36.40
2019-05-14T07:45:09.536Z,37.30
2019-05-14T07:47:39.027Z,37.70
2019-05-14T07:50:08.990Z,36.70
2019-05-14T07:52:45.391Z,36.50
2019-05-14T07:55:09.387Z,35.40
2019-05-14T07:57:39.258Z,34.60
2019-05-14T08:00:10.066Z,36.10
2019-05-14T08:02:38.942Z,37.10
2019-05-14T08:05:08.892Z,37.00
2019-05-14T08:07:38.878Z,37.70
2019-05-14T08:10:09.046Z,38.50
2019-05-14T08:12:39.174Z,35.40
2019-05-14T08:15:17.638Z,33.80
2019-05-14T08:17:40.237Z,35.00
2019-05-14T08:20:09.586Z,35.50
2019-05-14T08:22:38.505Z,36.80
2019-05-14T08:25:08.576Z,38.00
2019-05-14T08:27:38.822Z,37.60
2019-05-14T08:30:08.294Z,35.50
2019-05-14T08:32:39.045Z,31.70
2019-05-14T08:35:09.229Z,29.50
2019-05-14T08:37:38.688Z,27.10
2019-05-14T08:40:09.506Z,26.20
2019-05-14T08:42:38.578Z,30.00
2019-05-14T08:45:10.584Z,33.30
2019-05-14T08:47:39.084Z,35.50
2019-05-14T08:50:09.289Z,34.00
2019-05-14T08:52:39.331Z,36.60
2019-05-14T08:55:13.055Z,38.90
2019-05-14T08:57:39.185Z,35.20
2019-05-14T09:00:13.864Z,32.30
2019-05-14T09:02:39.434Z,30.20
2019-05-14T09:05:10.284Z,32.50
2019-05-14T09:07:39.641Z,30.50
2019-05-14T09:10:08.887Z,27.60
2019-05-14T09:12:38.788Z,28.40
2019-05-14T09:15:09.865Z,26.70
2019-05-14T09:17:39.074Z,25.00
2019-05-14T09:20:11.586Z,26.90
2019-05-14T09:22:39.750Z,26.50
2019-05-14T09:25:09.054Z,27.20
2019-05-14T09:27:38.684Z,31.80
2019-05-14T09:30:09.730Z,35.00
2019-05-14T09:32:39.212Z,37.60
2019-05-14T09:35:09.777Z,36.90
2019-05-14T09:37:39.870Z,40.30
2019-05-14T09:40:09.103Z,39.40
2019-05-14T09:45:10.903Z,38.40
2019-05-14T09:47:38.792Z,33.00
2019-05-14T09:50:22.011Z,30.20
2019-05-14T09:52:39.704Z,32.70
2019-05-14T09:55:09.488Z,29.70
2019-05-14T09:57:38.913Z,31.30
2019-05-14T10:00:09.666Z,35.50
2019-05-14T10:02:39.370Z,35.00
2019-05-14T10:05:09.223Z,33.00
2019-05-14T10:07:39.375Z,33.30
2019-05-14T10:10:09.621Z,36.30
2019-05-14T10:12:51.266Z,38.40
2019-05-14T10:15:10.058Z,40.40
2019-05-14T10:17:39.457Z,42.10
2019-05-14T10:20:09.183Z,43.70
2019-05-14T10:22:39.829Z,45.20
2019-05-14T10:25:09.311Z,45.50
2019-05-14T10:27:38.194Z,46.50
2019-05-14T10:30:10.354Z,43.60
2019-05-14T10:32:41.287Z,44.30
2019-05-14T10:35:09.723Z,45.00
2019-05-14T10:37:40.063Z,45.50
2019-05-14T10:40:10.599Z,46.20
2019-05-14T10:42:40.385Z,46.90
2019-05-14T10:45:12.810Z,47.90
2019-05-14T10:47:40.964Z,47.50
2019-05-14T10:50:13.679Z,44.70
2019-05-14T10:52:40.575Z,46.30
2019-05-14T10:55:09.708Z,47.60
2019-05-14T10:57:38.486Z,46.20
2019-05-14T11:00:08.843Z,48.20
2019-05-14T11:02:38.709Z,44.90
2019-05-14T11:05:08.558Z,40.10
2019-05-14T11:07:41.427Z,36.10
2019-05-14T11:10:09.372Z,33.20
2019-05-14T11:12:39.591Z,31.00
2019-05-14T11:15:09.881Z,29.40
2019-05-14T11:17:40.646Z,27.90
2019-05-14T11:20:11.578Z,26.60
2019-05-14T11:22:40.415Z,27.20
2019-05-14T11:25:09.494Z,26.90
2019-05-14T11:27:38.913Z,29.70
2019-05-14T11:30:09.040Z,33.70
2019-05-14T11:32:38.590Z,33.00
2019-05-14T11:35:12.982Z,31.40
2019-05-14T11:37:41.331Z,29.20
2019-05-14T11:40:09.477Z,29.20
2019-05-14T11:42:38.877Z,29.50
2019-05-14T11:45:09.741Z,33.30
2019-05-14T11:47:38.601Z,34.60
2019-05-14T11:50:09.811Z,37.20
2019-05-14T11:52:38.802Z,39.10
2019-05-14T11:55:09.064Z,41.30
2019-05-14T11:57:38.110Z,42.20
2019-05-14T12:00:08.605Z,43.10
2019-05-14T12:02:38.465Z,44.50
2019-05-14T12:05:08.989Z,44.30
2019-05-14T12:07:38.828Z,42.60
2019-05-14T12:10:09.457Z,39.60
2019-05-14T12:12:38.402Z,35.70
2019-05-14T12:15:08.873Z,36.70
2019-05-14T12:17:39.412Z,33.30
2019-05-14T12:20:09.097Z,32.60
2019-05-14T12:22:39.238Z,33.90
2019-05-14T12:25:08.452Z,34.50
2019-05-14T12:27:38.709Z,35.90
2019-05-14T12:30:09.853Z,36.80
2019-05-14T12:32:39.735Z,37.30
2019-05-14T12:35:09.305Z,36.10
2019-05-14T12:37:39.015Z,37.10
2019-05-14T12:40:08.833Z,36.80
2019-05-14T12:42:39.245Z,36.30
2019-05-14T12:45:09.374Z,35.80
2019-05-14T12:47:38.622Z,34.60
2019-05-14T12:50:09.351Z,33.70
2019-05-14T12:52:39.157Z,31.90
2019-05-14T12:55:09.398Z,30.60
2019-05-14T12:57:39.595Z,29.10
2019-05-14T13:00:10.859Z,27.50
2019-05-14T13:02:39.666Z,26.10
2019-05-14T13:05:09.139Z,25.30
2019-05-14T13:07:41.420Z,25.00
2019-05-14T13:10:09.411Z,25.00
2019-05-14T13:12:39.113Z,24.50
2019-05-14T13:15:08.921Z,24.10
2019-05-14T13:17:38.966Z,23.80
2019-05-14T13:20:13.649Z,23.40
2019-05-14T13:22:45.609Z,23.00
2019-05-14T13:25:11.277Z,23.00
2019-05-14T13:27:40.312Z,22.90
2019-05-14T13:30:10.086Z,22.30
2019-05-14T13:32:39.714Z,21.60
2019-05-14T13:35:13.340Z,21.30
2019-05-14T13:37:40.160Z,20.90
2019-05-14T13:40:10.687Z,20.70
2019-05-14T13:42:44.321Z,20.40
2019-05-14T13:45:12.110Z,20.20
2019-05-14T13:47:40.953Z,20.10
2019-05-14T13:50:10.501Z,20.40
2019-05-14T13:52:58.266Z,20.60
2019-05-14T13:55:10.409Z,20.50
2019-05-14T13:57:40.086Z,20.30
2019-05-14T14:00:11.729Z,20.10
2019-05-14T14:02:40.275Z,19.90
2019-05-14T14:05:09.724Z,20.10
2019-05-14T14:07:39.529Z,20.10
2019-05-14T14:10:10.556Z,19.90
2019-05-14T14:12:40.492Z,19.60
2019-05-14T14:15:10.235Z,19.40
2019-05-14T14:17:39.637Z,19.40
2019-05-14T14:20:09.482Z,19.40
2019-05-14T14:22:39.902Z,19.30
2019-05-14T14:25:17.642Z,19.50
2019-05-14T14:27:48.725Z,19.50
2019-05-14T14:30:19.454Z,19.50
2019-05-14T14:32:49.464Z,19.50
2019-05-14T14:35:23.765Z,19.50
2019-05-14T14:37:51.083Z,19.30
2019-05-14T14:40:23.408Z,19.00
2019-05-14T14:42:53.182Z,18.50
2019-05-14T14:45:23.012Z,18.10
2019-05-14T14:47:52.428Z,17.90
2019-05-14T14:50:21.698Z,17.90
2019-05-14T14:52:50.532Z,18.00
2019-05-14T14:55:20.155Z,18.20
2019-05-14T14:57:54.391Z,18.20
2019-05-14T15:00:19.826Z,18.20
2019-05-14T15:02:49.541Z,18.00
2019-05-14T15:05:19.892Z,17.90
2019-05-14T15:07:49.961Z,17.70
2019-05-14T15:10:19.396Z,17.60
2019-05-14T15:12:49.689Z,17.50
2019-05-14T15:15:19.159Z,17.50
2019-05-14T15:17:48.331Z,17.50
2019-05-14T15:20:19.461Z,17.40
2019-05-14T15:22:49.144Z,17.20
2019-05-14T15:25:18.536Z,17.10
2019-05-14T15:27:49.092Z,16.90
2019-05-14T15:30:18.590Z,16.80
2019-05-14T15:32:50.943Z,16.60
2019-05-14T15:35:18.995Z,16.60
2019-05-14T15:37:48.783Z,16.60
2019-05-14T15:40:22.158Z,16.70
2019-05-14T15:42:49.787Z,16.90
2019-05-14T15:45:18.911Z,17.00
2019-05-14T15:47:48.600Z,16.90
2019-05-14T15:50:20.005Z,16.70
2019-05-14T15:52:48.801Z,16.50
2019-05-14T15:55:18.444Z,16.20
2019-05-14T15:57:47.398Z,16.10
2019-05-14T16:00:19.502Z,16.00
2019-05-14T16:02:50.198Z,16.10
2019-05-14T16:05:18.894Z,16.30
2019-05-14T16:07:49.382Z,16.40
2019-05-14T16:10:21.764Z,16.30
2019-05-14T16:12:50.201Z,16.20
2019-05-14T16:15:19.283Z,16.10
2019-05-14T16:18:04.165Z,16.10
2019-05-14T16:20:22.801Z,15.90
2019-05-14T16:22:51.595Z,15.80
2019-05-14T16:25:20.507Z,15.70
2019-05-14T16:27:49.582Z,15.90
2019-05-14T16:30:19.355Z,16.00
2019-05-14T16:32:48.691Z,16.00
2019-05-14T16:35:21.259Z,15.80
2019-05-14T16:37:48.481Z,15.70
2019-05-14T16:40:19.311Z,15.60
2019-05-14T16:42:48.614Z,15.50
2019-05-14T16:45:18.623Z,15.40
2019-05-14T16:47:47.786Z,15.40
2019-05-14T16:50:18.991Z,15.40
2019-05-14T16:52:49.399Z,15.50
2019-05-14T16:55:26.915Z,15.50
2019-05-14T16:57:49.542Z,15.50
2019-05-14T17:00:18.643Z,15.40
2019-05-14T17:02:48.310Z,15.30
2019-05-14T17:05:17.552Z,15.20
2019-05-14T17:07:48.862Z,15.10
2019-05-14T17:10:18.204Z,15.00
2019-05-14T17:12:53.636Z,15.00
2019-05-14T17:15:18.224Z,14.80
2019-05-14T17:17:48.244Z,14.90
2019-05-14T17:20:19.336Z,14.80
2019-05-14T17:22:48.697Z,14.80
2019-05-14T17:25:26.773Z,14.70
2019-05-14T17:27:48.706Z,14.60
2019-05-14T17:30:18.357Z,14.50
2019-05-14T17:32:49.449Z,14.40
2019-05-14T17:35:19.539Z,14.30
2019-05-14T17:37:48.577Z,14.10
2019-05-14T17:40:17.642Z,14.00
2019-05-14T17:42:48.732Z,13.80
2019-05-14T17:45:17.981Z,13.70
2019-05-14T17:47:49.016Z,13.60
2019-05-14T17:50:18.480Z,13.60
2019-05-14T17:52:55.424Z,13.50
2019-05-14T17:55:18.744Z,13.50
2019-05-14T17:57:56.415Z,13.50
2019-05-14T18:00:18.651Z,13.50
2019-05-14T18:02:48.609Z,13.50
2019-05-14T18:05:18.787Z,13.40
2019-05-14T18:07:48.450Z,13.40
2019-05-14T18:10:19.526Z,13.30
2019-05-14T18:12:48.357Z,13.30
2019-05-14T18:15:17.446Z,13.20
2019-05-14T18:17:46.598Z,13.10
2019-05-14T18:20:15.522Z,12.90
2019-05-14T18:22:44.478Z,12.70
2019-05-14T18:25:13.341Z,12.50
2019-05-14T18:27:42.262Z,12.30
2019-05-14T18:30:11.578Z,12.30
2019-05-14T18:32:40.405Z,12.20
2019-05-14T18:35:09.569Z,12.00
2019-05-14T18:37:38.987Z,11.90
2019-05-14T18:40:09.211Z,11.80
2019-05-14T18:42:39.051Z,11.70
2019-05-14T18:45:08.849Z,11.60
2019-05-14T18:47:39.875Z,11.50
2019-05-14T18:50:08.967Z,11.30
2019-05-14T18:52:40.005Z,11.10
2019-05-14T18:55:08.796Z,11.00
2019-05-14T18:57:38.215Z,10.90
2019-05-14T19:00:08.197Z,10.80
2019-05-14T19:02:39.269Z,10.60
2019-05-14T19:05:08.586Z,10.60
2019-05-14T19:07:39.528Z,10.50
2019-05-14T19:10:09.453Z,10.40
2019-05-14T19:12:38.987Z,10.30
2019-05-14T19:15:08.844Z,10.10
2019-05-14T19:17:38.597Z,10.00
2019-05-14T19:20:08.967Z,9.70
2019-05-14T19:22:39.710Z,9.50
2019-05-14T19:25:09.185Z,9.30
2019-05-14T19:27:38.258Z,9.10
2019-05-14T19:30:08.653Z,8.90
2019-05-14T19:32:39.229Z,8.70
2019-05-14T19:35:08.740Z,8.40
2019-05-14T19:37:39.112Z,8.20
2019-05-14T19:40:09.425Z,8.10
2019-05-14T19:42:39.032Z,7.90
2019-05-14T19:45:08.629Z,7.70
2019-05-14T19:47:39.754Z,7.60
2019-05-14T19:50:08.959Z,7.40
2019-05-14T19:52:39.097Z,7.30
2019-05-14T19:55:08.283Z,7.10
2019-05-14T19:57:38.327Z,6.90
2019-05-14T20:00:09.131Z,6.80
2019-05-14T20:02:38.110Z,6.60
2019-05-14T20:05:09.001Z,6.50
2019-05-14T20:07:39.015Z,6.40
2019-05-14T20:10:09.078Z,6.30
2019-05-14T20:12:39.307Z,6.20
2019-05-14T20:15:09.536Z,6.10
2019-05-14T20:17:38.785Z,5.90
2019-05-14T20:20:08.830Z,5.80
2019-05-14T20:22:39.133Z,5.70
2019-05-14T20:25:09.406Z,5.60
2019-05-14T20:27:39.160Z,5.50
2019-05-14T20:30:09.225Z,5.40
2019-05-14T20:32:38.027Z,5.20
2019-05-14T20:35:09.014Z,5.20
2019-05-14T20:37:39.075Z,5.10
2019-05-14T20:40:08.918Z,5.00
2019-05-14T20:42:39.242Z,5.00
2019-05-14T20:45:08.937Z,4.80
2019-05-14T20:47:39.024Z,4.70
2019-05-14T20:50:09.218Z,4.60
2019-05-14T20:52:38.206Z,4.50
2019-05-14T20:55:09.559Z,4.40
2019-05-14T20:57:38.707Z,4.30
2019-05-14T21:00:08.448Z,4.20
2019-05-14T21:02:39.349Z,4.10
2019-05-14T21:05:13.459Z,4.10
2019-05-14T21:07:39.274Z,4.00
2019-05-14T21:10:08.915Z,3.90
2019-05-14T21:12:39.362Z,3.80
2019-05-14T21:15:09.600Z,3.80
2019-05-14T21:17:38.677Z,3.70
2019-05-14T21:20:09.053Z,3.60
2019-05-14T21:22:40.223Z,3.60
2019-05-14T21:25:12.574Z,3.50
2019-05-14T21:27:48.015Z,3.50
2019-05-14T21:30:12.733Z,3.40
2019-05-14T21:32:42.705Z,3.40
2019-05-14T21:35:12.243Z,3.30
2019-05-14T21:37:41.125Z,3.30
2019-05-14T21:40:10.142Z,3.20
2019-05-14T21:42:39.068Z,3.20
2019-05-14T21:45:09.774Z,3.10
2019-05-14T21:47:39.134Z,3.10
2019-05-14T21:50:09.075Z,3.00
2019-05-14T21:52:39.207Z,2.90
2019-05-14T21:55:09.161Z,2.90
2019-05-14T21:57:39.641Z,2.80
2019-05-14T22:00:13.587Z,2.80
2019-05-14T22:02:42.500Z,2.70
2019-05-14T22:05:12.979Z,2.70
2019-05-14T22:07:41.829Z,2.60
2019-05-14T22:10:10.873Z,2.60
2019-05-14T22:12:39.722Z,2.50
2019-05-14T22:15:08.730Z,2.50
2019-05-14T22:17:38.268Z,2.50
2019-05-14T22:20:08.327Z,2.40
2019-05-14T22:22:39.138Z,2.40
2019-05-14T22:25:07.981Z,2.30
2019-05-14T22:27:39.329Z,2.30
2019-05-14T22:30:08.551Z,2.20
2019-05-14T22:32:38.291Z,2.20
2019-05-14T22:35:08.619Z,2.10
2019-05-14T22:37:39.042Z,2.00
2019-05-14T22:40:08.365Z,2.00
2019-05-14T22:42:39.315Z,2.00
2019-05-14T22:45:09.440Z,1.90
2019-05-14T22:47:40.537Z,1.90
2019-05-14T22:50:09.348Z,1.90
2019-05-14T22:52:38.875Z,1.80
2019-05-14T22:55:08.059Z,1.80
2019-05-14T22:57:39.273Z,1.80
2019-05-14T23:00:08.106Z,1.80
2019-05-14T23:02:38.131Z,1.70
2019-05-14T23:05:08.271Z,1.70
2019-05-14T23:07:38.365Z,1.70
2019-05-14T23:10:09.013Z,1.60
2019-05-14T23:12:38.700Z,1.60
2019-05-14T23:15:08.380Z,1.60
2019-05-14T23:17:38.988Z,1.60
2019-05-14T23:20:09.212Z,1.50
2019-05-14T23:22:39.033Z,1.50
2019-05-14T23:25:09.182Z,1.40
2019-05-14T23:27:39.151Z,1.40
2019-05-14T23:30:09.309Z,1.40
2019-05-14T23:32:38.744Z,1.30
2019-05-14T23:35:07.789Z,1.30
2019-05-14T23:37:36.590Z,1.20
2019-05-14T23:40:05.517Z,1.20
2019-05-14T23:42:34.353Z,1.10
2019-05-14T23:45:03.574Z,1.10
2019-05-14T23:47:32.331Z,1.00
2019-05-14T23:50:01.114Z,1.00
2019-05-14T23:52:29.882Z,1.00
2019-05-14T23:54:58.661Z,0.90
2019-05-14T23:57:28.859Z,0.90
2019-05-14T23:59:58.020Z,0.90
